Time;durP1;ratioP1;P1;durP2;ratioP2;P2;SDS_P1;SDS_P2;PMS_P1;PMS_P2;Temp;Humidity;BMP_temperature;BMP_pressure;BME280_temperature;BME280_humidity;BME280_pressure;Samples;Min_cycle;Max_cycle;Signal;HPM_P1;HPM_P2
2022/01/25 00:32:06;;;;;;;98.93;47.43;;;1.70;99.90;;;;;;5054880;28;20177;-69
2022/01/25 00:34:32;;;;;;;104.43;49.37;;;1.70;99.90;;;;;;5054745;28;20205;-69
2022/01/25 00:36:58;;;;;;;101.90;48.00;;;1.60;99.90;;;;;;5054599;28;20218;-70
2022/01/25 00:39:24;;;;;;;97.33;48.57;;;1.60;99.90;;;;;;5054440;28;20222;-69
2022/01/25 00:41:49;;;;;;;100.53;46.43;;;1.60;99.90;;;;;;5054706;28;20596;-70
2022/01/25 00:44:16;;;;;;;104.87;48.47;;;1.50;99.90;;;;;;5054599;28;20201;-69
2022/01/25 00:46:42;;;;;;;110.33;51.37;;;1.50;99.90;;;;;;5054735;28;20173;-69
2022/01/25 00:49:08;;;;;;;107.43;49.47;;;1.50;99.90;;;;;;5054472;28;20598;-69
2022/01/25 00:51:58;;;;;;;104.63;49.90;;;1.50;99.90;;;;;;5054594;28;20185;-69
2022/01/25 00:56:49;;;;;;;100.53;48.90;;;1.60;99.90;;;;;;5054607;28;20180;-69
2022/01/25 00:59:18;;;;;;;96.33;47.73;;;1.60;99.90;;;;;;5054391;28;20226;-69
2022/01/25 01:01:46;;;;;;;101.27;48.87;;;1.60;99.90;;;;;;5036247;28;20212;-69
2022/01/25 01:04:12;;;;;;;103.33;48.90;;;1.60;99.90;;;;;;5054371;28;20181;-69
2022/01/25 01:06:41;;;;;;;99.27;47.60;;;1.50;99.90;;;;;;5054052;28;20264;-69
2022/01/25 01:09:09;;;;;;;105.77;49.17;;;1.50;99.90;;;;;;5053111;28;20643;-69
2022/01/25 01:11:41;;;;;;;104.30;48.23;;;1.40;99.90;;;;;;5054192;28;20185;-68
2022/01/25 01:51:49;;;;;;;103.47;49.40;;;1.30;99.90;;;;;;5053092;28;20169;-68
2022/01/25 01:53:48;;;;;;;103.97;47.67;;;1.20;99.90;;;;;;5039344;28;20184;-69
2022/01/25 01:56:14;;;;;;;97.33;46.90;;;1.20;99.90;;;;;;5053478;28;20183;-69
2022/01/25 01:58:40;;;;;;;103.17;48.77;;;1.10;99.90;;;;;;5053587;28;20172;-69
2022/01/25 02:01:12;;;;;;;105.57;48.50;;;1.10;99.90;;;;;;5053538;28;20640;-69
2022/01/25 02:03:38;;;;;;;101.97;46.97;;;1.10;99.90;;;;;;5053399;28;20254;-69
2022/01/25 02:06:04;;;;;;;106.73;49.30;;;1.00;99.90;;;;;;5052824;28;20243;-68
2022/01/25 02:08:29;;;;;;;111.33;50.20;;;1.00;99.90;;;;;;5053234;28;20699;-69
2022/01/25 02:10:55;;;;;;;105.77;49.17;;;1.00;99.90;;;;;;5053242;28;20184;-69
2022/01/25 02:13:21;;;;;;;104.47;49.43;;;1.00;99.90;;;;;;5035313;28;20165;-69
2022/01/25 02:15:48;;;;;;;100.90;49.37;;;1.00;99.90;;;;;;5053313;28;20259;-69
2022/01/25 02:23:45;;;;;;;108.23;50.23;;;1.10;99.90;;;;;;5053199;28;20223;-69
2022/01/25 02:26:13;;;;;;;104.93;50.63;;;1.10;99.90;;;;;;5052838;28;20244;-69
2022/01/25 02:28:42;;;;;;;109.50;50.77;;;1.00;99.90;;;;;;5052994;28;20176;-69
2022/01/25 02:31:10;;;;;;;109.40;49.03;;;1.00;99.90;;;;;;5053025;28;20193;-69
2022/01/25 02:33:36;;;;;;;100.03;48.73;;;0.90;99.90;;;;;;5035008;28;20212;-69
2022/01/25 02:36:05;;;;;;;105.90;49.67;;;0.90;99.90;;;;;;5052657;28;20185;-69
2022/01/25 02:38:32;;;;;;;103.23;49.23;;;0.90;99.90;;;;;;5053070;28;20184;-68
2022/01/25 02:40:59;;;;;;;103.60;48.50;;;0.90;99.90;;;;;;5053130;28;20184;-69
2022/01/25 02:43:26;;;;;;;109.10;49.10;;;0.90;99.90;;;;;;5052959;28;20197;-69
2022/01/25 02:49:10;;;;;;;101.67;47.77;;;0.90;99.90;;;;;;4987303;28;20184;-69
2022/01/25 02:51:42;;;;;;;108.33;50.17;;;0.90;99.90;;;;;;5052907;28;20263;-69
2022/01/25 02:54:10;;;;;;;105.97;49.40;;;0.90;99.90;;;;;;5052689;28;20162;-69
2022/01/25 02:56:42;;;;;;;105.40;49.47;;;0.90;99.90;;;;;;5052772;28;20678;-69
2022/01/25 02:59:09;;;;;;;105.00;50.07;;;1.00;99.90;;;;;;5052749;28;20644;-68
2022/01/25 03:01:36;;;;;;;105.13;48.97;;;1.00;99.90;;;;;;5052527;28;20223;-69
2022/01/25 03:04:03;;;;;;;102.97;48.93;;;0.90;99.90;;;;;;5052554;28;20251;-69
2022/01/25 03:06:28;;;;;;;103.97;50.03;;;0.90;99.90;;;;;;5052293;28;20682;-68
2022/01/25 03:08:54;;;;;;;100.03;47.80;;;0.90;99.90;;;;;;5052522;28;20261;-68
2022/01/25 03:11:22;;;;;;;107.33;50.17;;;0.90;99.90;;;;;;5052583;28;20187;-69
2022/01/25 03:14:00;;;;;;;103.30;48.00;;;0.80;99.90;;;;;;5052667;28;20169;-69
2022/01/25 03:16:36;;;;;;;99.87;48.13;;;0.80;99.90;;;;;;5052468;28;20263;-69
2022/01/25 03:19:28;;;;;;;99.93;45.37;;;0.80;99.90;;;;;;5051959;28;20212;-69
2022/01/25 03:21:51;;;;;;;108.97;48.80;;;0.80;99.90;;;;;;5052215;28;20188;-69
2022/01/25 03:24:17;;;;;;;101.17;47.67;;;0.80;99.90;;;;;;5052330;28;20233;-69
2022/01/25 03:26:42;;;;;;;108.43;47.17;;;0.80;99.90;;;;;;5052524;28;20176;-69
2022/01/25 03:29:08;;;;;;;107.30;49.03;;;0.70;99.90;;;;;;5052536;28;20172;-69
2022/01/25 03:31:33;;;;;;;104.70;48.67;;;0.70;99.90;;;;;;5052090;28;20186;-68
2022/01/25 03:33:59;;;;;;;104.43;48.00;;;0.70;99.90;;;;;;5055719;28;20170;-68
2022/01/25 03:36:25;;;;;;;98.10;45.23;;;0.70;99.90;;;;;;5056033;28;20192;-69
2022/01/25 03:38:51;;;;;;;110.77;50.20;;;0.80;99.90;;;;;;5055902;28;20601;-69
2022/01/25 03:41:18;;;;;;;92.50;45.40;;;0.90;99.90;;;;;;5055840;28;20632;-68
2022/01/25 03:43:50;;;;;;;91.87;40.03;;;1.00;99.90;;;;;;5055613;28;20193;-68
2022/01/25 03:46:23;;;;;;;102.37;46.87;;;1.00;99.90;;;;;;5055746;28;20217;-69
2022/01/25 03:51:33;;;;;;;98.03;44.23;;;1.10;99.90;;;;;;5055989;28;20575;-70
2022/01/25 03:53:59;;;;;;;100.73;46.40;;;1.10;99.90;;;;;;5055606;28;20168;-70
2022/01/25 03:56:24;;;;;;;101.57;46.87;;;1.00;99.90;;;;;;5055561;28;20289;-70
2022/01/25 03:58:51;;;;;;;99.37;45.73;;;1.10;99.90;;;;;;5055478;28;20692;-69
2022/01/25 04:01:17;;;;;;;106.33;46.37;;;1.20;99.90;;;;;;5055161;28;20254;-70
2022/01/25 04:03:53;;;;;;;102.40;45.30;;;1.40;99.90;;;;;;5055661;28;20187;-70
2022/01/25 04:06:20;;;;;;;99.70;46.03;;;1.40;99.90;;;;;;5055344;28;20224;-71
2022/01/25 04:08:46;;;;;;;88.63;35.53;;;1.40;99.90;;;;;;5055389;28;20166;-70
2022/01/25 04:11:12;;;;;;;90.90;40.63;;;1.20;99.90;;;;;;5055216;28;20177;-70
2022/01/25 04:13:38;;;;;;;106.30;41.53;;;1.10;99.90;;;;;;5054925;28;20179;-70
2022/01/25 04:16:10;;;;;;;110.57;43.60;;;1.10;99.90;;;;;;5055013;28;20578;-70
2022/01/25 04:18:52;;;;;;;101.83;45.87;;;1.10;99.90;;;;;;5055304;28;20165;-70
2022/01/25 04:26:43;;;;;;;91.57;36.07;;;1.20;99.90;;;;;;5055113;28;20701;-70
2022/01/25 04:29:09;;;;;;;101.83;43.60;;;1.00;99.90;;;;;;5054840;28;20263;-69
2022/01/25 04:31:36;;;;;;;107.43;42.43;;;1.00;99.90;;;;;;5054243;28;20170;-71
2022/01/25 04:34:25;;;;;;;102.07;41.33;;;1.10;99.90;;;;;;5054661;28;20168;-70
2022/01/25 04:50:56;;;;;;;108.20;43.27;;;1.30;99.90;;;;;;5054606;28;20221;-70
2022/01/25 04:55:42;;;;;;;93.70;36.13;;;1.20;99.90;;;;;;5054215;28;20172;-70
2022/01/25 04:58:16;;;;;;;95.77;38.43;;;1.10;99.90;;;;;;5054179;28;20182;-70
2022/01/25 05:00:42;;;;;;;89.20;35.77;;;1.10;99.90;;;;;;5053968;28;20225;-70
2022/01/25 05:05:41;;;;;;;83.67;33.43;;;0.90;99.90;;;;;;5054035;28;20209;-70
2022/01/25 05:08:20;;;;;;;102.13;38.13;;;0.90;99.90;;;;;;5054018;28;20176;-70
2022/01/25 05:11:00;;;;;;;97.83;37.50;;;1.00;99.90;;;;;;5054267;28;20167;-70
2022/01/25 05:13:45;;;;;;;115.40;37.17;;;1.00;99.90;;;;;;5053761;28;20199;-70
2022/01/25 05:18:44;;;;;;;113.40;34.30;;;1.00;99.90;;;;;;5054120;28;20175;-71
2022/01/25 05:23:54;;;;;;;121.60;43.73;;;0.90;99.90;;;;;;5054157;28;20232;-70
2022/01/25 05:26:20;;;;;;;113.00;41.33;;;1.00;99.90;;;;;;5053260;28;20224;-71
2022/01/25 05:28:46;;;;;;;112.43;43.27;;;1.00;99.90;;;;;;5053337;28;20520;-71
2022/01/25 05:31:11;;;;;;;121.37;42.53;;;1.10;99.90;;;;;;5053583;28;20182;-70
2022/01/25 05:33:37;;;;;;;105.07;36.60;;;1.10;99.90;;;;;;5053505;28;20204;-71
2022/01/25 05:36:03;;;;;;;128.40;40.80;;;1.00;99.90;;;;;;5053457;28;20698;-70
2022/01/25 05:38:28;;;;;;;126.00;43.00;;;0.90;99.90;;;;;;5053160;28;20164;-70
2022/01/25 05:41:02;;;;;;;126.03;41.67;;;1.00;99.90;;;;;;5052902;28;20180;-71
2022/01/25 05:46:18;;;;;;;105.83;37.90;;;1.10;99.90;;;;;;5053467;28;20655;-71
2022/01/25 05:48:47;;;;;;;94.47;34.87;;;1.10;99.90;;;;;;5053035;28;20221;-70
2022/01/25 05:51:13;;;;;;;104.23;37.60;;;1.20;99.90;;;;;;5053103;28;20207;-72
2022/01/25 05:53:42;;;;;;;101.40;38.90;;;1.10;99.90;;;;;;5052483;28;20622;-71
2022/01/25 05:56:08;;;;;;;87.53;31.63;;;1.20;99.90;;;;;;5052261;28;20264;-70
2022/01/25 05:58:34;;;;;;;108.93;37.63;;;1.10;99.90;;;;;;5052552;28;20252;-70
2022/01/25 06:01:00;;;;;;;126.60;38.70;;;1.10;99.90;;;;;;5052773;28;20624;-70
2022/01/25 06:03:25;;;;;;;125.50;39.27;;;1.20;99.90;;;;;;5052733;28;20212;-70
2022/01/25 06:05:51;;;;;;;87.13;30.20;;;1.20;99.90;;;;;;5052604;28;20244;-71
2022/01/25 06:08:17;;;;;;;106.23;34.90;;;1.10;99.90;;;;;;5052986;28;20187;-71
2022/01/25 06:10:43;;;;;;;99.13;30.80;;;1.20;99.90;;;;;;5051785;28;20180;-71
2022/01/25 06:13:08;;;;;;;124.27;31.43;;;1.10;99.90;;;;;;5051773;28;20625;-71
2022/01/25 06:15:34;;;;;;;151.33;36.37;;;0.90;99.90;;;;;;5052723;28;20188;-70
2022/01/25 06:18:00;;;;;;;139.70;36.83;;;0.90;99.90;;;;;;5052481;28;20177;-71
2022/01/25 06:20:25;;;;;;;118.27;34.40;;;0.70;99.90;;;;;;5052138;28;20638;-72
2022/01/25 06:22:51;;;;;;;117.10;31.40;;;0.80;99.90;;;;;;5051755;28;20618;-71
2022/01/25 06:25:17;;;;;;;106.63;34.13;;;0.80;99.90;;;;;;5051723;28;20227;-71
2022/01/25 06:27:44;;;;;;;116.23;35.77;;;0.90;99.90;;;;;;5051305;28;20176;-70
2022/01/25 06:30:16;;;;;;;121.63;35.37;;;1.00;99.90;;;;;;5051847;28;20169;-70
2022/01/25 06:32:44;;;;;;;118.43;35.13;;;1.00;99.90;;;;;;5052195;28;20171;-70
2022/01/25 06:35:09;;;;;;;169.27;39.43;;;1.10;99.90;;;;;;5051894;28;20180;-71
2022/01/25 06:37:35;;;;;;;163.57;38.37;;;1.10;99.90;;;;;;5051703;28;20237;-71
2022/01/25 06:40:01;;;;;;;146.00;38.37;;;1.20;99.90;;;;;;5051635;28;20268;-71
2022/01/25 06:42:31;;;;;;;128.27;34.47;;;1.00;99.90;;;;;;5051324;28;20198;-70
2022/01/25 06:45:03;;;;;;;130.43;34.47;;;1.10;99.90;;;;;;5051944;28;20678;-71
2022/01/25 06:47:29;;;;;;;104.47;31.97;;;1.10;99.90;;;;;;5051841;28;20541;-71
2022/01/25 06:49:55;;;;;;;119.50;34.80;;;1.10;99.90;;;;;;5051303;28;20178;-71
2022/01/25 06:52:20;;;;;;;131.97;37.40;;;1.10;99.90;;;;;;5051628;28;20179;-71
2022/01/25 06:54:46;;;;;;;97.20;32.10;;;1.20;99.90;;;;;;5051080;28;20173;-71
2022/01/25 06:57:12;;;;;;;160.67;36.97;;;1.20;99.90;;;;;;5051087;28;20208;-71
2022/01/25 06:59:38;;;;;;;106.07;34.23;;;1.10;99.90;;;;;;5051846;28;20650;-71
2022/01/25 07:02:04;;;;;;;137.37;34.53;;;1.10;99.90;;;;;;5051115;28;20269;-71
2022/01/25 07:04:30;;;;;;;192.40;36.43;;;1.10;99.90;;;;;;5051811;28;20694;-71
2022/01/25 07:06:55;;;;;;;175.70;38.80;;;1.00;99.90;;;;;;5051563;28;20181;-71
2022/01/25 07:09:21;;;;;;;137.87;37.23;;;1.00;99.90;;;;;;5055211;28;20636;-70
2022/01/25 07:11:47;;;;;;;137.00;35.77;;;1.00;99.90;;;;;;5054842;28;20541;-71
2022/01/25 07:14:12;;;;;;;223.37;41.20;;;1.20;99.90;;;;;;5055763;28;20217;-71
2022/01/25 07:16:38;;;;;;;134.33;35.77;;;1.10;99.90;;;;;;5055539;28;20575;-71
2022/01/25 07:19:04;;;;;;;132.30;36.50;;;1.20;99.90;;;;;;5055239;28;20180;-71
2022/01/25 07:21:30;;;;;;;298.03;42.97;;;1.10;99.90;;;;;;5055118;28;20247;-72
2022/01/25 07:23:56;;;;;;;179.37;39.17;;;1.20;99.90;;;;;;5037146;28;20263;-71
2022/01/25 07:26:21;;;;;;;136.40;32.47;;;1.30;99.90;;;;;;5054184;28;20303;-71
2022/01/25 07:28:47;;;;;;;155.80;33.93;;;1.20;99.90;;;;;;5055008;28;20498;-71
2022/01/25 07:31:13;;;;;;;153.90;32.80;;;1.10;99.90;;;;;;5054363;28;20186;-70
2022/01/25 07:33:39;;;;;;;102.90;29.40;;;1.00;99.90;;;;;;5054677;28;20195;-71
2022/01/25 07:36:07;;;;;;;93.73;26.40;;;1.10;99.90;;;;;;5054471;28;20222;-72
2022/01/25 07:38:33;;;;;;;142.63;32.90;;;1.10;99.90;;;;;;5054798;28;20198;-70
2022/01/25 07:40:59;;;;;;;175.13;36.47;;;1.00;99.90;;;;;;5054582;28;20569;-71
2022/01/25 07:43:25;;;;;;;126.80;31.63;;;1.10;99.90;;;;;;5054926;28;20683;-70
2022/01/25 07:45:53;;;;;;;145.50;32.63;;;1.20;99.90;;;;;;5055053;28;20211;-70
2022/01/25 07:48:21;;;;;;;188.30;36.63;;;1.20;99.90;;;;;;5053964;28;20204;-71
2022/01/25 07:50:47;;;;;;;139.40;33.10;;;1.20;99.90;;;;;;5054520;28;20207;-71
2022/01/25 07:53:12;;;;;;;91.23;26.00;;;1.40;99.90;;;;;;5054239;28;20176;-71
2022/01/25 07:55:38;;;;;;;156.77;34.90;;;1.40;99.90;;;;;;5054545;28;20543;-72
2022/01/25 07:58:04;;;;;;;137.83;33.97;;;1.30;99.90;;;;;;5036299;28;20267;-73
2022/01/25 08:00:30;;;;;;;118.40;33.20;;;1.40;99.90;;;;;;5053415;28;20184;-71
2022/01/25 08:02:55;;;;;;;117.73;33.00;;;1.40;99.90;;;;;;5054305;28;20556;-71
2022/01/25 08:05:24;;;;;;;106.13;31.77;;;1.40;99.90;;;;;;5054464;28;20307;-71
2022/01/25 08:07:50;;;;;;;156.83;37.10;;;1.50;99.90;;;;;;5054157;28;20188;-71
2022/01/25 08:10:16;;;;;;;139.63;36.77;;;1.60;99.90;;;;;;5054228;28;20249;-71
2022/01/25 08:12:42;;;;;;;143.83;35.47;;;1.70;99.90;;;;;;5054473;28;20173;-71
2022/01/25 08:15:09;;;;;;;153.57;35.90;;;1.70;99.90;;;;;;5054206;28;20688;-70
2022/01/25 08:17:35;;;;;;;116.90;32.73;;;1.80;99.90;;;;;;5054357;28;20199;-70
2022/01/25 08:20:01;;;;;;;128.27;34.73;;;1.90;99.90;;;;;;5054177;28;20208;-72
2022/01/25 08:22:26;;;;;;;145.10;35.03;;;1.80;99.90;;;;;;5035852;28;20177;-71
2022/01/25 08:24:52;;;;;;;113.87;35.43;;;1.90;99.90;;;;;;5054202;28;20251;-70
2022/01/25 08:27:20;;;;;;;118.13;34.57;;;1.90;99.90;;;;;;5051020;28;20188;-70
2022/01/25 08:29:50;;;;;;;117.33;33.70;;;1.70;99.90;;;;;;5038931;28;20787;-70
2022/01/25 08:32:16;;;;;;;119.27;34.67;;;1.70;99.90;;;;;;5036374;28;20181;-70
2022/01/25 08:34:44;;;;;;;115.67;31.97;;;1.80;99.90;;;;;;5033977;28;20190;-71
2022/01/25 08:37:10;;;;;;;101.70;30.53;;;1.70;99.90;;;;;;5036655;28;20227;-71
2022/01/25 08:39:35;;;;;;;96.87;30.07;;;1.60;99.90;;;;;;5045914;28;20220;-71
2022/01/25 08:42:02;;;;;;;92.13;27.47;;;1.70;99.90;;;;;;5037423;28;20200;-70
2022/01/25 08:44:28;;;;;;;98.57;31.10;;;1.70;99.90;;;;;;5045310;28;20182;-70
2022/01/25 08:46:53;;;;;;;114.57;33.47;;;1.70;99.90;;;;;;5044183;28;20203;-69
2022/01/25 08:49:21;;;;;;;135.37;34.47;;;1.90;99.90;;;;;;5035642;28;20246;-70
2022/01/25 08:51:48;;;;;;;96.10;33.37;;;1.90;99.90;;;;;;5049585;28;20177;-69
2022/01/25 08:54:14;;;;;;;129.37;33.23;;;2.00;99.90;;;;;;5040099;28;20193;-69
2022/01/25 08:56:41;;;;;;;114.83;30.67;;;1.70;99.90;;;;;;5042570;28;20178;-69
2022/01/25 08:59:07;;;;;;;102.53;32.23;;;1.50;99.90;;;;;;5046507;28;20185;-70
2022/01/25 09:01:34;;;;;;;111.20;32.97;;;1.60;99.90;;;;;;5036375;28;20239;-71
2022/01/25 09:04:01;;;;;;;98.50;30.33;;;1.80;99.90;;;;;;5048928;28;20166;-69
2022/01/25 09:06:27;;;;;;;102.40;32.80;;;1.80;99.90;;;;;;5040454;28;20274;-70
2022/01/25 09:09:12;;;;;;;117.37;31.87;;;1.90;99.90;;;;;;5050694;28;20181;-70
2022/01/25 09:11:40;;;;;;;94.43;30.73;;;2.00;99.90;;;;;;5035269;28;20276;-69
2022/01/25 09:14:06;;;;;;;79.23;25.53;;;2.10;99.90;;;;;;5047659;28;20220;-69
2022/01/25 09:16:33;;;;;;;103.17;32.17;;;2.20;99.90;;;;;;5041769;28;20180;-69
2022/01/25 09:18:58;;;;;;;105.90;31.57;;;2.20;99.90;;;;;;5043795;28;20180;-69
2022/01/25 09:21:27;;;;;;;110.00;33.10;;;2.20;99.90;;;;;;5044441;28;20543;-70
2022/01/25 09:23:53;;;;;;;100.63;30.87;;;2.30;99.90;;;;;;5036443;28;20173;-69
2022/01/25 09:26:19;;;;;;;106.47;31.33;;;2.10;99.90;;;;;;5045356;28;20291;-70
2022/01/25 09:28:45;;;;;;;100.37;32.50;;;2.30;99.90;;;;;;5037540;28;20174;-70
2022/01/25 09:31:11;;;;;;;96.97;32.47;;;2.50;99.90;;;;;;5045441;28;20177;-70
2022/01/25 09:33:36;;;;;;;91.73;32.40;;;2.50;99.90;;;;;;5039635;28;20172;-69
2022/01/25 09:36:03;;;;;;;104.50;30.97;;;2.60;99.90;;;;;;5037543;28;20205;-69
2022/01/25 09:38:28;;;;;;;84.97;30.77;;;2.60;99.90;;;;;;5041080;28;20170;-69
2022/01/25 09:40:54;;;;;;;85.17;29.47;;;2.60;99.90;;;;;;5035034;28;20181;-69
2022/01/25 09:43:21;;;;;;;78.10;27.10;;;2.50;99.90;;;;;;5047932;28;20196;-69
2022/01/25 09:45:47;;;;;;;91.33;32.77;;;2.20;99.90;;;;;;5035954;28;20224;-69
2022/01/25 09:48:14;;;;;;;95.63;33.13;;;2.30;99.90;;;;;;5023020;28;20235;-69
2022/01/25 09:50:43;;;;;;;76.90;28.60;;;2.30;99.90;;;;;;5044098;28;20641;-68
2022/01/25 09:53:10;;;;;;;114.50;32.43;;;2.50;99.90;;;;;;5037396;28;20181;-69
2022/01/25 09:55:42;;;;;;;81.10;29.70;;;2.40;99.90;;;;;;5032193;28;20662;-69
2022/01/25 09:58:09;;;;;;;80.83;27.90;;;2.20;99.90;;;;;;5037746;28;20242;-68
2022/01/25 10:00:36;;;;;;;90.00;32.73;;;2.20;99.90;;;;;;5050146;28;20176;-69
2022/01/25 10:03:20;;;;;;;83.10;30.60;;;2.20;99.90;;;;;;5039009;28;20520;-69
2022/01/25 10:05:48;;;;;;;81.03;29.50;;;2.40;99.90;;;;;;5048166;28;20246;-69
2022/01/25 10:08:29;;;;;;;77.10;29.87;;;2.60;99.90;;;;;;5033768;28;20645;-70
2022/01/25 10:10:59;;;;;;;81.37;33.17;;;2.70;99.90;;;;;;5027034;28;20173;-69
2022/01/25 10:13:27;;;;;;;82.07;30.43;;;2.90;99.90;;;;;;5035573;28;20170;-70
2022/01/25 10:16:14;;;;;;;80.17;31.57;;;3.00;99.90;;;;;;5035289;28;20173;-71
2022/01/25 10:18:41;;;;;;;78.10;28.63;;;3.10;99.90;;;;;;5030817;28;20201;-69
2022/01/25 10:21:18;;;;;;;81.23;30.63;;;2.90;99.90;;;;;;5037488;28;20182;-70
2022/01/25 10:24:05;;;;;;;83.13;30.50;;;3.00;99.90;;;;;;5034555;28;20648;-70
2022/01/25 10:26:33;;;;;;;81.60;32.17;;;3.00;99.90;;;;;;5042813;28;20229;-69
2022/01/25 10:28:59;;;;;;;81.43;30.70;;;3.10;99.90;;;;;;5043001;28;20238;-70
2022/01/25 10:31:34;;;;;;;83.30;32.03;;;2.90;99.90;;;;;;5041302;28;20173;-69
2022/01/25 10:33:59;;;;;;;72.40;29.93;;;2.80;99.90;;;;;;5036219;28;20588;-70
2022/01/25 10:36:25;;;;;;;75.37;27.70;;;2.80;99.90;;;;;;5043441;28;20185;-70
2022/01/25 10:38:55;;;;;;;76.60;29.23;;;2.80;99.90;;;;;;5043432;28;20188;-69
2022/01/25 10:41:24;;;;;;;81.70;32.27;;;2.90;99.90;;;;;;5018868;28;20177;-69
2022/01/25 10:43:52;;;;;;;75.97;29.63;;;2.90;99.90;;;;;;5052481;28;20219;-69
2022/01/25 10:46:30;;;;;;;72.47;28.20;;;3.00;99.90;;;;;;5025291;28;20355;-68
2022/01/25 10:49:05;;;;;;;72.63;28.30;;;3.00;99.90;;;;;;5042788;28;20328;-69
2022/01/25 10:51:41;;;;;;;68.90;28.77;;;2.90;99.90;;;;;;5051637;28;20173;-69
2022/01/25 10:54:08;;;;;;;65.97;27.47;;;2.80;99.90;;;;;;5035386;28;20174;-69
2022/01/25 10:56:42;;;;;;;74.50;29.57;;;2.80;99.90;;;;;;5035347;28;20253;-68
2022/01/25 10:59:10;;;;;;;72.43;28.87;;;2.80;99.90;;;;;;5035829;28;20174;-69
2022/01/25 11:01:38;;;;;;;70.77;27.43;;;3.10;99.90;;;;;;5035478;28;20656;-69
2022/01/25 11:04:16;;;;;;;75.73;28.23;;;3.00;99.90;;;;;;5035975;28;20173;-70
2022/01/25 11:06:43;;;;;;;71.97;28.73;;;3.00;99.90;;;;;;5035854;28;20275;-69
2022/01/25 11:09:11;;;;;;;72.47;29.50;;;2.80;99.90;;;;;;5043600;28;20165;-69
2022/01/25 11:11:44;;;;;;;66.53;27.80;;;2.90;99.90;;;;;;5043078;28;20227;-70
2022/01/25 11:16:54;;;;;;;78.23;31.67;;;2.90;99.90;;;;;;5035542;28;20546;-69
2022/01/25 11:19:21;;;;;;;72.50;31.00;;;3.00;99.90;;;;;;5035669;28;20174;-70
2022/01/25 11:21:48;;;;;;;64.77;23.67;;;3.20;99.90;;;;;;5035509;28;20174;-70
2022/01/25 11:24:17;;;;;;;64.73;26.93;;;2.90;99.90;;;;;;5037153;28;20201;-69
2022/01/25 11:26:44;;;;;;;70.17;29.20;;;2.60;99.90;;;;;;5054086;28;20213;-69
2022/01/25 11:29:10;;;;;;;78.13;30.63;;;2.80;99.90;;;;;;5069826;28;20230;-69
2022/01/25 11:31:39;;;;;;;68.30;29.80;;;3.10;99.90;;;;;;5074598;28;20168;-71
2022/01/25 11:34:09;;;;;;;71.00;29.57;;;3.20;99.90;;;;;;5059802;28;20169;-69
2022/01/25 11:36:56;;;;;;;73.60;29.90;;;3.20;99.90;;;;;;5058604;28;20242;-70
2022/01/25 11:39:25;;;;;;;77.37;31.43;;;3.10;99.90;;;;;;5068871;28;20203;-70
2022/01/25 11:42:36;;;;;;;73.13;29.33;;;3.30;99.90;;;;;;5068469;28;20177;-70
2022/01/25 11:45:03;;;;;;;66.87;26.87;;;3.40;99.90;;;;;;5055039;28;20333;-69
2022/01/25 11:47:35;;;;;;;70.97;27.53;;;3.30;99.90;;;;;;5054449;28;20161;-69
2022/01/25 11:50:03;;;;;;;75.37;30.33;;;3.30;99.90;;;;;;5054571;28;20282;-70
2022/01/25 11:52:30;;;;;;;79.33;32.10;;;3.40;99.90;;;;;;5055341;28;20177;-70
2022/01/25 11:55:22;;;;;;;73.17;30.47;;;3.30;99.90;;;;;;5059244;28;20181;-70
2022/01/25 11:58:07;;;;;;;74.70;30.87;;;3.40;99.90;;;;;;5074988;28;20169;-70
2022/01/25 12:00:47;;;;;;;77.37;31.10;;;3.50;99.90;;;;;;5072974;28;20175;-70
2022/01/25 12:03:28;;;;;;;74.60;29.20;;;3.50;99.90;;;;;;5051218;28;20176;-70
2022/01/25 12:05:54;;;;;;;78.60;30.90;;;3.50;99.90;;;;;;5063485;28;20297;-69
2022/01/25 12:08:27;;;;;;;82.50;34.73;;;3.50;99.90;;;;;;5063026;28;20213;-69
2022/01/25 12:10:58;;;;;;;77.07;31.00;;;3.40;99.90;;;;;;5056849;28;20176;-69
2022/01/25 12:13:39;;;;;;;72.90;30.80;;;3.50;99.90;;;;;;5066012;28;20205;-69
2022/01/25 12:16:23;;;;;;;80.10;32.27;;;3.50;99.90;;;;;;5067394;28;20193;-69
2022/01/25 12:18:57;;;;;;;83.50;32.57;;;3.70;99.90;;;;;;5057361;28;20165;-70
2022/01/25 12:21:45;;;;;;;88.53;33.27;;;3.80;99.90;;;;;;5059538;28;20170;-70
2022/01/25 12:24:40;;;;;;;84.40;32.80;;;3.90;99.90;;;;;;5058392;28;20201;-69
2022/01/25 12:30:12;;;;;;;81.10;32.27;;;3.80;99.90;;;;;;5043672;28;20628;-69
2022/01/25 12:33:03;;;;;;;79.37;32.07;;;3.90;99.90;;;;;;5034129;28;20177;-70
2022/01/25 12:35:41;;;;;;;77.93;32.30;;;3.90;99.90;;;;;;5038507;28;20247;-70
2022/01/25 12:38:46;;;;;;;81.67;32.93;;;3.80;99.90;;;;;;5046974;28;20176;-71
2022/01/25 12:41:24;;;;;;;90.93;35.30;;;3.70;99.90;;;;;;5036179;28;20196;-70
2022/01/25 12:43:55;;;;;;;83.93;34.97;;;3.70;99.90;;;;;;5042319;28;20213;-69
2022/01/25 12:46:25;;;;;;;89.50;34.20;;;3.60;99.90;;;;;;5033940;28;20685;-70
2022/01/25 12:48:52;;;;;;;87.97;34.90;;;3.50;99.90;;;;;;5036465;28;20673;-70
2022/01/25 12:51:21;;;;;;;90.03;34.90;;;3.60;99.90;;;;;;5050260;28;20196;-69
2022/01/25 12:53:50;;;;;;;92.60;35.83;;;3.40;99.90;;;;;;5042385;28;20173;-70
2022/01/25 12:56:27;;;;;;;83.93;34.00;;;3.50;99.90;;;;;;5035155;28;20178;-70
2022/01/25 12:59:06;;;;;;;93.03;37.57;;;3.50;99.90;;;;;;5043091;28;20180;-70
2022/01/25 13:01:35;;;;;;;95.73;38.33;;;3.60;99.90;;;;;;5044488;28;20312;-69
2022/01/25 13:04:03;;;;;;;94.03;37.57;;;3.80;99.90;;;;;;5041182;28;20200;-70
2022/01/25 13:06:37;;;;;;;86.97;35.37;;;3.90;99.90;;;;;;5035156;28;20293;-69
2022/01/25 13:09:13;;;;;;;97.07;35.93;;;3.80;99.90;;;;;;5037922;28;20173;-70
2022/01/25 13:11:59;;;;;;;92.87;36.90;;;3.70;99.90;;;;;;5037308;28;20225;-69
2022/01/25 13:17:32;;;;;;;96.27;36.00;;;3.90;99.90;;;;;;5041164;28;20271;-70
2022/01/25 13:20:02;;;;;;;86.70;34.93;;;3.70;99.90;;;;;;4984582;28;20195;-70
2022/01/25 13:22:41;;;;;;;88.23;35.27;;;3.50;99.90;;;;;;5007371;28;20436;-70
2022/01/25 13:27:47;;;;;;;95.77;36.40;;;3.60;99.90;;;;;;4990121;28;20211;-69
2022/01/25 13:32:59;;;;;;;98.43;38.20;;;3.40;99.90;;;;;;4993451;28;20218;-70
2022/01/25 13:35:33;;;;;;;108.33;42.80;;;3.50;99.90;;;;;;4991247;28;20195;-70
2022/01/25 13:38:04;;;;;;;90.30;38.53;;;3.70;99.90;;;;;;4993191;28;20187;-70
2022/01/25 13:46:09;;;;;;;94.77;39.17;;;3.60;99.90;;;;;;4983596;28;20721;-69
2022/01/25 13:48:36;;;;;;;92.40;37.90;;;3.60;99.90;;;;;;4974532;28;20604;-69
2022/01/25 13:51:07;;;;;;;91.10;37.63;;;3.70;99.90;;;;;;4991376;28;20207;-69
2022/01/25 13:53:35;;;;;;;97.53;38.83;;;3.70;99.90;;;;;;4993343;28;20175;-69
2022/01/25 13:56:05;;;;;;;95.07;36.80;;;3.80;99.90;;;;;;5011781;28;20185;-70
2022/01/25 13:58:37;;;;;;;99.33;38.47;;;3.90;99.90;;;;;;5033453;28;20169;-69
2022/01/25 14:01:05;;;;;;;104.57;40.67;;;3.90;99.90;;;;;;5045261;28;20549;-69
2022/01/25 14:03:33;;;;;;;94.37;39.93;;;4.00;99.90;;;;;;5033860;28;20669;-70
2022/01/25 14:05:59;;;;;;;93.60;38.53;;;4.10;99.90;;;;;;5039298;28;20205;-69
2022/01/25 14:08:38;;;;;;;103.00;41.93;;;4.20;99.90;;;;;;5032245;28;20192;-69
2022/01/25 14:22:31;;;;;;;85.80;36.73;;;4.00;99.90;;;;;;5048504;28;20717;-69
2022/01/25 14:24:57;;;;;;;86.33;38.97;;;4.00;99.90;;;;;;5044937;28;20240;-69
2022/01/25 14:27:32;;;;;;;86.50;38.30;;;4.00;99.90;;;;;;5040474;28;20233;-69
2022/01/25 14:30:00;;;;;;;90.97;39.37;;;4.00;99.90;;;;;;5047139;28;20191;-69
2022/01/25 14:32:30;;;;;;;94.13;41.47;;;3.90;99.90;;;;;;5032154;28;20181;-69
2022/01/25 14:35:12;;;;;;;92.20;41.07;;;3.90;99.90;;;;;;5032308;28;20642;-69
2022/01/25 14:37:55;;;;;;;84.50;38.13;;;3.90;99.90;;;;;;5032344;28;20181;-71
2022/01/25 14:40:21;;;;;;;78.27;36.47;;;3.90;99.90;;;;;;5031325;28;20178;-69
2022/01/25 14:42:47;;;;;;;86.53;37.90;;;3.80;99.90;;;;;;5031815;28;20640;-69
2022/01/25 14:45:20;;;;;;;85.40;37.97;;;3.90;99.90;;;;;;5031912;28;20304;-68
2022/01/25 14:47:48;;;;;;;84.13;37.83;;;3.90;99.90;;;;;;5031681;28;20566;-69
2022/01/25 14:50:33;;;;;;;83.83;37.47;;;4.00;99.90;;;;;;5031680;28;20213;-69
2022/01/25 14:53:14;;;;;;;73.53;33.40;;;4.10;99.90;;;;;;5031703;28;20164;-70
2022/01/25 14:55:41;;;;;;;76.97;35.33;;;4.20;99.90;;;;;;5031434;28;20174;-69
2022/01/25 15:00:55;;;;;;;83.13;36.50;;;4.30;99.90;;;;;;5031924;28;20232;-70
2022/01/25 15:03:23;;;;;;;81.37;36.90;;;4.40;99.90;;;;;;5031176;28;20644;-70
2022/01/25 15:05:51;;;;;;;88.87;39.83;;;4.50;99.90;;;;;;5014048;28;20214;-70
2022/01/25 15:08:18;;;;;;;78.37;35.87;;;4.30;99.90;;;;;;5031379;28;20182;-70
2022/01/25 15:10:46;;;;;;;81.47;36.87;;;4.20;99.90;;;;;;5030923;28;20174;-69